| time (UTC) | temp C | wind direction | speed KPH | gust KPH | rain 1hr cm | rain 24hr cm | rain mn cm | humidity % | barometer mb |
| 20260504151025 | 17 | 232 | 4.8 | 14.5 | 0.00 | 0.66 | 0.10 | 38 | 1012.1 |
| 20260504150538 | 17 | 275 | 3.2 | 16.1 | 0.00 | 0.66 | 0.10 | 40 | 1012.0 |
| 20260504141103 | 16 | 103 | 0.0 | 11.3 | 0.00 | 1.35 | 0.10 | 44 | 1012.3 |
| 20260504141004 | 16 | 66 | 3.2 | 11.3 | 0.00 | 1.35 | 0.10 | 44 | 1012.2 |
| 20260504140513 | 15 | 39 | 0.0 | 8.0 | 0.00 | 1.35 | 0.10 | 45 | 1012.3 |
| 20260504130507 | 13 | 63 | 0.0 | 9.7 | 0.10 | 1.35 | 0.10 | 53 | 1013.1 |
| 20260504110527 | 3 | 25 | 0.0 | 0.0 | 0.00 | 1.24 | 0.00 | 93 | 1013.1 |
| 20260504100514 | 1 | 25 | 0.0 | 0.0 | 0.00 | 1.24 | 0.00 | 92 | 1012.9 |
| 20260504081542 | 2 | 25 | 0.0 | 0.0 | 0.00 | 1.24 | 0.00 | 89 | 1012.5 |
| 20260504081049 | 2 | 25 | 0.0 | 0.0 | 0.00 | 1.24 | 0.00 | 89 | 1012.6 |
| 20260504080558 | 2 | 25 | 0.0 | 0.0 | 0.00 | 1.24 | 0.00 | 89 | 1012.6 |
| 20260504050521 | 3 | 10 | 0.0 | 0.0 | 0.00 | 1.24 | 0.00 | 83 | 1012.0 |
| 20260504045547 | 3 | 10 | 0.0 | 0.0 | 0.00 | 1.24 | 0.00 | 83 | 1012.2 |
| 20260504045057 | 3 | 10 | 0.0 | 0.0 | 0.00 | 1.24 | 0.00 | 83 | 1012.2 |
| 20260504045003 | 3 | 10 | 0.0 | 0.0 | 0.00 | 1.24 | 0.00 | 83 | 1012.2 |
| 20260504044519 | 3 | 10 | 0.0 | 0.0 | 0.00 | 1.24 | 0.00 | 83 | 1012.2 |
| 20260504044031 | 4 | 10 | 0.0 | 0.0 | 0.00 | 1.24 | 0.00 | 83 | 1012.2 |
| 20260504043539 | 4 | 10 | 0.0 | 0.0 | 0.00 | 1.24 | 0.00 | 83 | 1012.1 |
| 20260504043100 | 4 | 10 | 0.0 | 0.0 | 0.00 | 1.24 | 0.00 | 82 | 1012.1 |
| 20260504042510 | 4 | 10 | 0.0 | 0.0 | 0.00 | 1.24 | 0.00 | 82 | 1012.1 |
| 20260504042025 | 4 | 10 | 0.0 | 0.0 | 0.00 | 1.24 | 0.00 | 81 | 1012.1 |
| 20260504041537 | 5 | 10 | 0.0 | 0.0 | 0.00 | 1.24 | 0.00 | 80 | 1012.1 |
| 20260504041057 | 5 | 10 | 0.0 | 0.0 | 0.00 | 1.24 | 0.00 | 80 | 1012.1 |
| 20260504040508 | 5 | 10 | 0.0 | 0.0 | 0.00 | 1.24 | 0.00 | 80 | 1012.1 |
| 20260504040026 | 5 | 10 | 0.0 | 0.0 | 0.00 | 1.24 | 0.00 | 80 | 1012.1 |
| 20260504035532 | 5 | 10 | 0.0 | 0.0 | 0.00 | 1.24 | 1.24 | 80 | 1012.1 |
| 20260504035045 | 5 | 10 | 0.0 | 0.0 | 0.00 | 1.24 | 1.24 | 80 | 1012.0 |
| 20260504034504 | 5 | 10 | 0.0 | 0.0 | 0.00 | 1.24 | 1.24 | 80 | 1012.0 |
| 20260504034014 | 5 | 10 | 0.0 | 0.0 | 0.00 | 1.24 | 1.24 | 79 | 1012.0 |
| 20260504033529 | 5 | 10 | 0.0 | 0.0 | 0.00 | 1.24 | 1.24 | 79 | 1012.0 |
| 20260504033040 | 5 | 10 | 0.0 | 0.0 | 0.00 | 1.24 | 1.24 | 78 | 1011.9 |
| 20260504032556 | 5 | 10 | 0.0 | 0.0 | 0.00 | 1.24 | 1.24 | 78 | 1011.8 |
| 20260504032013 | 5 | 10 | 0.0 | 0.0 | 0.00 | 1.24 | 1.24 | 78 | 1011.8 |
| 20260504031531 | 5 | 8 | 0.0 | 0.0 | 0.00 | 1.24 | 1.24 | 78 | 1011.8 |
| 20260504031035 | 5 | 8 | 0.0 | 0.0 | 0.00 | 1.24 | 1.24 | 77 | 1011.9 |
| 20260504030551 | 5 | 8 | 0.0 | 0.0 | 0.00 | 1.24 | 1.24 | 77 | 1011.8 |
| 20260504030011 | 6 | 8 | 0.0 | 0.0 | 0.00 | 1.24 | 1.24 | 75 | 1011.8 |
| 20260504025518 | 6 | 8 | 0.0 | 0.0 | 0.00 | 1.24 | 1.24 | 74 | 1011.7 |
| 20260504025034 | 6 | 8 | 0.0 | 0.0 | 0.00 | 1.24 | 1.24 | 75 | 1011.7 |
| 20260504024552 | 6 | 8 | 0.0 | 0.0 | 0.00 | 1.24 | 1.24 | 74 | 1011.7 |
| 20260504024059 | 6 | 8 | 0.0 | 0.0 | 0.00 | 1.24 | 1.24 | 74 | 1011.8 |
| 20260504023515 | 6 | 34 | 0.0 | 0.0 | 0.00 | 1.24 | 1.24 | 74 | 1011.8 |
| 20260504023029 | 6 | 34 | 0.0 | 0.0 | 0.00 | 1.24 | 1.24 | 73 | 1011.8 |
| 20260504022544 | 6 | 34 | 0.0 | 0.0 | 0.00 | 1.24 | 1.24 | 72 | 1011.8 |
| 20260504022057 | 7 | 34 | 0.0 | 0.0 | 0.00 | 1.24 | 1.24 | 70 | 1011.8 |
| 20260504022003 | 7 | 33 | 0.0 | 0.0 | 0.00 | 1.24 | 1.24 | 70 | 1011.8 |
| 20260504021516 | 7 | 34 | 0.0 | 0.0 | 0.00 | 1.24 | 1.24 | 69 | 1011.8 |
| 20260504021032 | 7 | 34 | 0.0 | 0.0 | 0.00 | 1.24 | 1.24 | 67 | 1011.8 |
| 20260504020548 | 8 | 33 | 0.0 | 0.0 | 0.00 | 1.24 | 1.24 | 64 | 1011.8 |
| 20260504020142 | 8 | 33 | 0.0 | 0.0 | 0.00 | 1.24 | 1.24 | 61 | 1011.8 |
| 20260504020004 | 8 | 33 | 0.0 | 0.0 | 0.00 | 1.24 | 1.24 | 58 | 1011.8 |
| 20260504015514 | 8 | 33 | 0.0 | 0.0 | 0.00 | 1.24 | 1.24 | 59 | 1011.8 |
| 20260504015030 | 8 | 33 | 0.0 | 0.0 | 0.00 | 1.24 | 1.24 | 65 | 1011.7 |
| 20260504014557 | 8 | 34 | 0.0 | 0.0 | 0.00 | 1.24 | 1.24 | 66 | 1011.7 |
| 20260504014057 | 8 | 33 | 0.0 | 0.0 | 0.00 | 1.24 | 1.24 | 63 | 1011.6 |
| 20260504013510 | 8 | 34 | 0.0 | 0.0 | 0.00 | 1.24 | 1.24 | 63 | 1011.6 |
| 20260504013034 | 8 | 33 | 0.0 | 0.0 | 0.00 | 1.24 | 1.24 | 57 | 1011.5 |
| 20260504012538 | 8 | 33 | 0.0 | 0.0 | 0.00 | 1.24 | 1.24 | 54 | 1011.5 |
| 20260504012055 | 8 | 34 | 0.0 | 0.0 | 0.00 | 1.24 | 1.24 | 53 | 1011.4 |
| 20260504011506 | 8 | 33 | 0.0 | 0.0 | 0.00 | 1.24 | 1.24 | 57 | 1011.3 |
| 20260504011019 | 9 | 34 | 0.0 | 0.0 | 0.00 | 1.24 | 1.24 | 60 | 1011.2 |
| 20260504010535 | 9 | 34 | 0.0 | 0.0 | 0.00 | 1.24 | 1.24 | 61 | 1011.2 |
| 20260504010050 | 9 | 34 | 0.0 | 0.0 | 0.00 | 1.24 | 1.24 | 61 | 1011.1 |
| 20260504005559 | 10 | 33 | 0.0 | 0.0 | 0.00 | 1.24 | 1.24 | 59 | 1011.0 |
| 20260504005502 | 10 | 33 | 0.0 | 0.0 | 0.00 | 1.24 | 1.24 | 59 | 1011.0 |
| 20260504005021 | 10 | 34 | 0.0 | 0.0 | 0.00 | 1.24 | 1.24 | 59 | 1010.9 |
| 20260504004534 | 10 | 34 | 0.0 | 0.0 | 0.00 | 1.24 | 1.24 | 58 | 1010.8 |
| 20260504004046 | 10 | 33 | 0.0 | 0.0 | 0.00 | 1.24 | 1.24 | 57 | 1010.8 |
| 20260504003557 | 10 | 34 | 0.0 | 0.0 | 0.00 | 1.24 | 1.24 | 55 | 1010.7 |
| 20260504003504 | 10 | 33 | 0.0 | 0.0 | 0.00 | 1.24 | 1.24 | 55 | 1010.7 |
| 20260504003017 | 10 | 33 | 0.0 | 0.0 | 0.00 | 1.24 | 1.24 | 50 | 1010.6 |
| 20260504002532 | 10 | 34 | 0.0 | 0.0 | 0.00 | 1.24 | 1.24 | 50 | 1010.6 |
| 20260504002044 | 11 | 34 | 0.0 | 0.0 | 0.00 | 1.24 | 1.24 | 52 | 1010.6 |
| 20260504001622 | 11 | 34 | 0.0 | 0.0 | 0.00 | 1.24 | 1.24 | 43 | 1010.5 |
| 20260504001014 | 11 | 34 | 0.0 | 0.0 | 0.00 | 1.24 | 1.24 | 45 | 1010.4 |
| 20260504000531 | 11 | 34 | 0.0 | 0.0 | 0.00 | 1.24 | 1.24 | 41 | 1010.4 |
| 20260504000045 | 11 | 34 | 0.0 | 0.0 | 0.00 | 1.24 | 1.24 | 40 | 1010.3 |
| 20260503235601 | 11 | 34 | 0.0 | 0.0 | 0.00 | 1.24 | 1.24 | 40 | 1010.2 |
| 20260503235013 | 11 | 34 | 0.0 | 0.0 | 0.00 | 1.24 | 1.24 | 40 | 1010.1 |
| 20260503234532 | 12 | 34 | 0.0 | 0.0 | 0.00 | 1.24 | 1.24 | 39 | 1010.0 |
| 20260503234045 | 12 | 34 | 0.0 | 0.0 | 0.00 | 1.24 | 1.24 | 39 | 1009.9 |
| 20260503233558 | 12 | 17 | 0.0 | 0.0 | 0.00 | 1.24 | 1.24 | 39 | 1009.9 |
| 20260503233019 | 12 | 17 | 0.0 | 0.0 | 0.00 | 1.24 | 1.24 | 38 | 1009.9 |
| 20260503232530 | 12 | 356 | 0.0 | 1.6 | 0.08 | 1.24 | 1.24 | 36 | 1009.8 |
| 20260503232042 | 12 | 356 | 0.0 | 1.6 | 0.13 | 1.24 | 1.24 | 36 | 1009.8 |
| 20260503231556 | 13 | 356 | 0.0 | 6.4 | 0.13 | 1.24 | 1.24 | 35 | 1009.7 |
| 20260503231012 | 13 | 1 | 1.6 | 6.4 | 0.13 | 1.24 | 1.24 | 35 | 1009.7 |
| 20260503230525 | 13 | 6 | 0.0 | 4.8 | 0.13 | 1.24 | 1.24 | 35 | 1009.7 |
| 20260503230045 | 13 | 346 | 0.0 | 9.7 | 0.13 | 1.24 | 1.24 | 35 | 1009.7 |
| 20260503225553 | 13 | 89 | 1.6 | 11.3 | 0.15 | 1.24 | 1.24 | 34 | 1009.7 |
| 20260503225011 | 13 | 266 | 0.0 | 11.3 | 0.23 | 1.24 | 1.24 | 35 | 1009.6 |
| 20260503224524 | 13 | 333 | 0.0 | 8.0 | 0.25 | 1.24 | 1.24 | 36 | 1009.6 |
| 20260503224038 | 13 | 352 | 1.6 | 8.0 | 0.25 | 1.24 | 1.24 | 34 | 1009.6 |
| 20260503223550 | 13 | 141 | 3.2 | 8.0 | 0.25 | 1.24 | 1.24 | 35 | 1009.6 |
| 20260503223007 | 14 | 338 | 1.6 | 8.0 | 0.25 | 1.24 | 1.24 | 35 | 1009.6 |
| 20260503222519 | 14 | 249 | 1.6 | 12.9 | 0.13 | 1.12 | 1.17 | 34 | 1009.5 |
| 20260503222035 | 14 | 274 | 1.6 | 14.5 | 0.13 | 1.12 | 1.12 | 35 | 1009.4 |
| 20260503221546 | 14 | 309 | 4.8 | 14.5 | 0.13 | 1.12 | 1.12 | 34 | 1009.5 |
| 20260503221007 | 14 | 189 | 0.0 | 6.4 | 0.13 | 1.12 | 1.12 | 36 | 1009.4 |
| 20260503220518 | 13 | 308 | 0.0 | 9.7 | 0.13 | 1.12 | 1.12 | 36 | 1009.4 |
| 20260503220041 | 13 | 259 | 4.8 | 11.3 | 0.13 | 1.12 | 1.12 | 36 | 1009.4 |
| 20260503215542 | 13 | 264 | 1.6 | 9.7 | 0.10 | 1.09 | 1.09 | 36 | 1009.4 |
| 20260503215057 | 13 | 318 | 0.0 | 8.0 | 0.03 | 1.02 | 1.02 | 36 | 1009.4 |
| 20260503214517 | 13 | 340 | 0.0 | 8.0 | 0.00 | 0.99 | 0.99 | 38 | 1009.5 |
| 20260503214032 | 13 | 4 | 1.6 | 9.7 | 0.00 | 0.99 | 0.99 | 38 | 1009.6 |
| 20260503213539 | 13 | 312 | 0.0 | 17.7 | 0.00 | 0.99 | 0.99 | 38 | 1009.5 |
| 20260503213056 | 13 | 302 | 4.8 | 12.9 | 0.00 | 0.99 | 0.99 | 38 | 1009.4 |
| 20260503212508 | 13 | 323 | 0.0 | 9.7 | 0.00 | 0.99 | 0.99 | 38 | 1009.4 |
| 20260503212026 | 13 | 235 | 3.2 | 19.3 | 0.00 | 0.99 | 0.99 | 38 | 1009.6 |
| 20260503211539 | 13 | 296 | 9.7 | 19.3 | 0.00 | 0.99 | 0.99 | 37 | 1009.6 |
| 20260503211059 | 13 | 287 | 8.0 | 17.7 | 0.00 | 0.99 | 0.99 | 38 | 1009.8 |
| 20260503210512 | 13 | 223 | 0.0 | 14.5 | 0.00 | 0.99 | 0.99 | 39 | 1009.7 |
| 20260503210022 | 13 | 273 | 3.2 | 14.5 | 0.00 | 0.99 | 0.99 | 37 | 1009.7 |
| 20260503205538 | 13 | 287 | 1.6 | 14.5 | 0.00 | 0.99 | 0.99 | 39 | 1009.5 |
| 20260503205050 | 12 | 276 | 1.6 | 14.5 | 0.00 | 0.99 | 0.99 | 39 | 1009.6 |
| 20260503204505 | 13 | 280 | 4.8 | 19.3 | 0.00 | 0.99 | 0.99 | 38 | 1009.7 |
| 20260503204018 | 12 | 299 | 3.2 | 19.3 | 0.00 | 0.99 | 0.99 | 38 | 1009.7 |
| 20260503203533 | 12 | 285 | 3.2 | 14.5 | 0.00 | 0.99 | 0.99 | 39 | 1009.6 |
| 20260503203103 | 12 | 231 | 3.2 | 14.5 | 0.00 | 0.99 | 0.99 | 38 | 1009.6 |
| 20260503202504 | 12 | 202 | 4.8 | 19.3 | 0.00 | 0.99 | 0.99 | 40 | 1009.5 |
| 20260503202016 | 12 | 223 | 8.0 | 19.3 | 0.00 | 0.99 | 0.99 | 39 | 1009.5 |
| 20260503201534 | 12 | 302 | 4.8 | 19.3 | 0.00 | 0.99 | 0.99 | 39 | 1009.5 |
| 20260503201044 | 12 | 349 | 3.2 | 20.9 | 0.00 | 0.99 | 0.99 | 40 | 1009.4 |
| 20260503200558 | 12 | 254 | 9.7 | 20.9 | 0.00 | 0.99 | 0.99 | 40 | 1009.7 |
| 20260503200013 | 12 | 15 | 6.4 | 17.7 | 0.00 | 0.99 | 0.99 | 40 | 1009.7 |
| 20260503195525 | 12 | 1 | 9.7 | 17.7 | 0.00 | 0.99 | 0.99 | 40 | 1009.8 |
| 20260503195036 | 12 | 160 | 4.8 | 17.7 | 0.00 | 0.99 | 0.99 | 41 | 1009.7 |
| 20260503194552 | 12 | 280 | 1.6 | 20.9 | 0.00 | 0.99 | 0.99 | 42 | 1009.5 |
| 20260503194008 | 11 | 243 | 8.0 | 20.9 | 0.00 | 0.99 | 0.99 | 41 | 1009.8 |
| 20260503193524 | 11 | 286 | 1.6 | 17.7 | 0.00 | 0.99 | 0.99 | 42 | 1009.8 |
| 20260503193039 | 11 | 3 | 3.2 | 20.9 | 0.00 | 0.99 | 0.99 | 43 | 1009.9 |
| 20260503192551 | 11 | 205 | 8.0 | 20.9 | 0.00 | 0.99 | 0.99 | 41 | 1009.8 |
| 20260503192008 | 11 | 319 | 6.4 | 19.3 | 0.05 | 0.99 | 0.99 | 42 | 1009.9 |
| 20260503191519 | 11 | 246 | 6.4 | 20.9 | 0.13 | 0.99 | 0.99 | 42 | 1009.8 |
| 20260503191034 | 11 | 298 | 8.0 | 20.9 | 0.20 | 0.99 | 0.99 | 42 | 1009.8 |
| 20260503190545 | 11 | 31 | 6.4 | 17.7 | 0.28 | 0.99 | 0.99 | 42 | 1009.9 |
| 20260503190005 | 11 | 129 | 4.8 | 17.7 | 0.28 | 0.99 | 0.99 | 41 | 1009.7 |
| 20260503185518 | 11 | 217 | 4.8 | 19.3 | 0.28 | 0.99 | 0.99 | 41 | 1009.8 |
| 20260503185031 | 11 | 223 | 9.7 | 19.3 | 0.28 | 0.99 | 0.99 | 41 | 1009.8 |
| 20260503184539 | 11 | 249 | 4.8 | 29.0 | 0.28 | 0.99 | 0.99 | 41 | 1009.8 |
| 20260503184058 | 11 | 207 | 9.7 | 32.2 | 0.28 | 0.99 | 0.99 | 41 | 1009.9 |
| 20260503183508 | 11 | 225 | 4.8 | 25.7 | 0.28 | 0.99 | 0.99 | 40 | 1009.9 |
| 20260503183024 | 12 | 297 | 8.0 | 25.7 | 0.28 | 0.99 | 0.99 | 39 | 1009.9 |
| 20260503182533 | 12 | 286 | 4.8 | 22.5 | 0.25 | 0.97 | 0.99 | 40 | 1009.7 |
| 20260503182049 | 12 | 186 | 6.4 | 22.5 | 0.23 | 0.94 | 0.94 | 39 | 1009.7 |
| 20260503181605 | 12 | 202 | 8.0 | 29.0 | 0.15 | 0.86 | 0.94 | 39 | 1009.8 |
| 20260503181502 | 12 | 214 | 6.4 | 29.0 | 0.08 | 0.79 | 0.81 | 38 | 1009.8 |
| 20260503181018 | 12 | 290 | 8.0 | 29.0 | 0.00 | 0.71 | 0.71 | 39 | 1010.0 |
| 20260503180528 | 12 | 311 | 8.0 | 19.3 | 0.00 | 0.71 | 0.71 | 40 | 1009.8 |
| 20260503180044 | 12 | 273 | 6.4 | 19.3 | 0.00 | 0.71 | 0.71 | 40 | 1009.6 |
| 20260503175552 | 12 | 1 | 8.0 | 19.3 | 0.00 | 0.71 | 0.71 | 40 | 1009.9 |
| 20260503175011 | 11 | 285 | 8.0 | 19.3 | 0.00 | 0.71 | 0.71 | 40 | 1009.8 |
| 20260503174526 | 11 | 360 | 6.4 | 12.9 | 0.00 | 0.71 | 0.71 | 42 | 1009.8 |
| 20260503174040 | 11 | 77 | 4.8 | 12.9 | 0.00 | 0.71 | 0.71 | 43 | 1009.6 |
| 20260503173548 | 11 | 256 | 1.6 | 16.1 | 0.00 | 0.71 | 0.71 | 44 | 1009.7 |
| 20260503173006 | 11 | 290 | 4.8 | 16.1 | 0.00 | 0.71 | 0.71 | 44 | 1009.6 |
| 20260503172522 | 11 | 359 | 0.0 | 8.0 | 0.00 | 0.71 | 0.71 | 46 | 1009.7 |
| 20260503172035 | 11 | 301 | 0.0 | 17.7 | 0.00 | 0.71 | 0.71 | 48 | 1009.8 |
| 20260503171552 | 11 | 301 | 4.8 | 17.7 | 0.00 | 0.71 | 0.71 | 46 | 1009.9 |
| 20260503171004 | 11 | 299 | 0.0 | 9.7 | 0.00 | 0.71 | 0.71 | 49 | 1009.9 |
| 20260503170519 | 10 | 330 | 0.0 | 9.7 | 0.00 | 0.71 | 0.71 | 48 | 1010.0 |